sensor_id;sensor_type;location;lat;lon;timestamp;P1;durP1;ratioP1;P2;durP2;ratioP2
50739;SDS011;36704;52.524;17.580;2022-10-22T00:02:06;28.13;;;19.02;;
50739;SDS011;36704;52.524;17.580;2022-10-22T00:04:52;26.90;;;17.88;;
50739;SDS011;36704;52.524;17.580;2022-10-22T00:07:38;29.27;;;19.73;;
50739;SDS011;36704;52.524;17.580;2022-10-22T00:10:25;32.45;;;21.55;;
50739;SDS011;36704;52.524;17.580;2022-10-22T00:13:10;36.00;;;23.27;;
50739;SDS011;36704;52.524;17.580;2022-10-22T00:15:57;35.47;;;21.73;;
50739;SDS011;36704;52.524;17.580;2022-10-22T00:18:43;31.95;;;20.02;;
50739;SDS011;36704;52.524;17.580;2022-10-22T00:21:28;36.17;;;21.90;;
50739;SDS011;36704;52.524;17.580;2022-10-22T00:24:15;35.63;;;21.95;;
50739;SDS011;36704;52.524;17.580;2022-10-22T00:27:02;39.05;;;24.15;;
50739;SDS011;36704;52.524;17.580;2022-10-22T00:29:48;33.03;;;20.98;;
50739;SDS011;36704;52.524;17.580;2022-10-22T00:32:34;40.08;;;23.65;;
50739;SDS011;36704;52.524;17.580;2022-10-22T00:35:20;41.75;;;23.15;;
50739;SDS011;36704;52.524;17.580;2022-10-22T00:38:06;43.95;;;25.02;;
50739;SDS011;36704;52.524;17.580;2022-10-22T00:40:52;45.22;;;27.08;;
50739;SDS011;36704;52.524;17.580;2022-10-22T00:43:52;47.08;;;24.92;;
50739;SDS011;36704;52.524;17.580;2022-10-22T00:46:44;41.35;;;25.33;;
50739;SDS011;36704;52.524;17.580;2022-10-22T00:49:30;47.08;;;27.30;;
50739;SDS011;36704;52.524;17.580;2022-10-22T00:52:16;48.75;;;27.77;;
50739;SDS011;36704;52.524;17.580;2022-10-22T00:55:02;45.30;;;25.45;;
50739;SDS011;36704;52.524;17.580;2022-10-22T00:57:48;47.60;;;26.50;;
50739;SDS011;36704;52.524;17.580;2022-10-22T01:00:34;43.65;;;25.70;;
50739;SDS011;36704;52.524;17.580;2022-10-22T01:03:20;45.85;;;26.02;;
50739;SDS011;36704;52.524;17.580;2022-10-22T01:06:06;51.25;;;29.60;;
50739;SDS011;36704;52.524;17.580;2022-10-22T01:21:22;45.03;;;26.95;;
50739;SDS011;36704;52.524;17.580;2022-10-22T01:27:15;49.30;;;29.67;;
50739;SDS011;36704;52.524;17.580;2022-10-22T01:30:11;48.40;;;29.30;;
50739;SDS011;36704;52.524;17.580;2022-10-22T01:33:00;56.85;;;33.10;;
50739;SDS011;36704;52.524;17.580;2022-10-22T01:35:48;48.47;;;27.15;;
50739;SDS011;36704;52.524;17.580;2022-10-22T01:38:34;64.35;;;35.42;;
50739;SDS011;36704;52.524;17.580;2022-10-22T01:41:20;58.15;;;34.30;;
50739;SDS011;36704;52.524;17.580;2022-10-22T01:44:06;63.25;;;34.25;;
50739;SDS011;36704;52.524;17.580;2022-10-22T01:46:53;57.55;;;33.65;;
50739;SDS011;36704;52.524;17.580;2022-10-22T01:59:13;43.83;;;26.33;;
50739;SDS011;36704;52.524;17.580;2022-10-22T02:07:58;40.95;;;26.25;;
50739;SDS011;36704;52.524;17.580;2022-10-22T02:10:47;41.25;;;26.48;;
50739;SDS011;36704;52.524;17.580;2022-10-22T02:13:36;51.88;;;32.70;;
50739;SDS011;36704;52.524;17.580;2022-10-22T02:16:31;48.55;;;28.70;;
50739;SDS011;36704;52.524;17.580;2022-10-22T02:19:22;49.63;;;28.17;;
50739;SDS011;36704;52.524;17.580;2022-10-22T02:22:09;41.22;;;24.30;;
50739;SDS011;36704;52.524;17.580;2022-10-22T02:24:56;39.47;;;25.05;;
50739;SDS011;36704;52.524;17.580;2022-10-22T02:27:48;42.13;;;25.35;;
50739;SDS011;36704;52.524;17.580;2022-10-22T02:30:37;39.53;;;24.05;;
50739;SDS011;36704;52.524;17.580;2022-10-22T02:33:27;39.28;;;24.00;;
50739;SDS011;36704;52.524;17.580;2022-10-22T02:36:15;37.67;;;22.42;;
50739;SDS011;36704;52.524;17.580;2022-10-22T02:39:01;41.47;;;24.55;;
50739;SDS011;36704;52.524;17.580;2022-10-22T02:41:48;33.17;;;21.80;;
50739;SDS011;36704;52.524;17.580;2022-10-22T02:44:34;38.33;;;23.63;;
50739;SDS011;36704;52.524;17.580;2022-10-22T02:47:20;38.13;;;22.73;;
50739;SDS011;36704;52.524;17.580;2022-10-22T02:50:06;36.28;;;21.75;;
50739;SDS011;36704;52.524;17.580;2022-10-22T02:52:55;34.78;;;20.83;;
50739;SDS011;36704;52.524;17.580;2022-10-22T02:55:41;41.22;;;22.67;;
50739;SDS011;36704;52.524;17.580;2022-10-22T02:58:28;36.83;;;23.08;;
50739;SDS011;36704;52.524;17.580;2022-10-22T03:01:13;35.05;;;21.05;;
50739;SDS011;36704;52.524;17.580;2022-10-22T03:04:01;36.70;;;22.17;;
50739;SDS011;36704;52.524;17.580;2022-10-22T03:06:46;32.03;;;20.67;;
50739;SDS011;36704;52.524;17.580;2022-10-22T03:09:33;31.52;;;19.75;;
50739;SDS011;36704;52.524;17.580;2022-10-22T03:12:19;31.00;;;20.65;;
50739;SDS011;36704;52.524;17.580;2022-10-22T03:15:05;33.05;;;20.95;;
50739;SDS011;36704;52.524;17.580;2022-10-22T03:17:51;32.92;;;19.98;;
50739;SDS011;36704;52.524;17.580;2022-10-22T03:20:37;34.10;;;21.13;;
50739;SDS011;36704;52.524;17.580;2022-10-22T03:23:23;33.30;;;21.30;;
50739;SDS011;36704;52.524;17.580;2022-10-22T03:26:09;32.25;;;21.33;;
50739;SDS011;36704;52.524;17.580;2022-10-22T03:28:56;37.08;;;21.65;;
50739;SDS011;36704;52.524;17.580;2022-10-22T03:31:42;35.58;;;22.33;;
50739;SDS011;36704;52.524;17.580;2022-10-22T03:34:28;38.13;;;22.30;;
50739;SDS011;36704;52.524;17.580;2022-10-22T03:37:13;47.08;;;25.52;;
50739;SDS011;36704;52.524;17.580;2022-10-22T03:39:59;47.85;;;26.42;;
50739;SDS011;36704;52.524;17.580;2022-10-22T03:42:45;38.17;;;23.02;;
50739;SDS011;36704;52.524;17.580;2022-10-22T03:45:31;39.17;;;23.85;;
50739;SDS011;36704;52.524;17.580;2022-10-22T03:48:17;38.30;;;23.90;;
50739;SDS011;36704;52.524;17.580;2022-10-22T03:51:03;39.92;;;22.27;;
50739;SDS011;36704;52.524;17.580;2022-10-22T03:53:49;44.35;;;24.50;;
50739;SDS011;36704;52.524;17.580;2022-10-22T03:56:35;37.28;;;22.33;;
50739;SDS011;36704;52.524;17.580;2022-10-22T03:59:20;40.65;;;23.52;;
50739;SDS011;36704;52.524;17.580;2022-10-22T04:02:06;38.92;;;22.35;;
50739;SDS011;36704;52.524;17.580;2022-10-22T04:04:52;42.88;;;23.65;;
50739;SDS011;36704;52.524;17.580;2022-10-22T04:07:37;37.88;;;22.33;;
50739;SDS011;36704;52.524;17.580;2022-10-22T04:10:24;38.97;;;23.20;;
50739;SDS011;36704;52.524;17.580;2022-10-22T04:13:09;45.17;;;23.55;;
50739;SDS011;36704;52.524;17.580;2022-10-22T04:15:55;40.90;;;24.05;;
50739;SDS011;36704;52.524;17.580;2022-10-22T04:19:00;47.10;;;26.17;;
50739;SDS011;36704;52.524;17.580;2022-10-22T04:21:46;44.92;;;24.30;;
50739;SDS011;36704;52.524;17.580;2022-10-22T04:24:32;47.85;;;26.88;;
50739;SDS011;36704;52.524;17.580;2022-10-22T04:27:18;53.72;;;26.38;;
50739;SDS011;36704;52.524;17.580;2022-10-22T04:30:04;54.03;;;28.23;;
50739;SDS011;36704;52.524;17.580;2022-10-22T04:32:51;49.75;;;25.80;;
50739;SDS011;36704;52.524;17.580;2022-10-22T04:35:37;57.28;;;26.77;;
50739;SDS011;36704;52.524;17.580;2022-10-22T04:38:24;55.03;;;26.90;;
50739;SDS011;36704;52.524;17.580;2022-10-22T04:41:13;50.55;;;27.67;;
50739;SDS011;36704;52.524;17.580;2022-10-22T04:44:01;50.97;;;25.13;;
50739;SDS011;36704;52.524;17.580;2022-10-22T04:46:47;60.67;;;29.23;;
50739;SDS011;36704;52.524;17.580;2022-10-22T04:49:32;54.10;;;25.73;;
50739;SDS011;36704;52.524;17.580;2022-10-22T04:52:18;47.95;;;24.33;;
50739;SDS011;36704;52.524;17.580;2022-10-22T04:55:04;50.33;;;24.63;;
50739;SDS011;36704;52.524;17.580;2022-10-22T04:57:49;49.85;;;26.83;;
50739;SDS011;36704;52.524;17.580;2022-10-22T05:00:36;61.03;;;29.05;;
50739;SDS011;36704;52.524;17.580;2022-10-22T05:03:23;57.75;;;25.63;;
50739;SDS011;36704;52.524;17.580;2022-10-22T05:06:10;52.40;;;24.65;;
50739;SDS011;36704;52.524;17.580;2022-10-22T05:08:58;55.28;;;25.67;;
50739;SDS011;36704;52.524;17.580;2022-10-22T05:11:48;57.47;;;26.75;;
50739;SDS011;36704;52.524;17.580;2022-10-22T05:14:34;58.10;;;27.83;;
50739;SDS011;36704;52.524;17.580;2022-10-22T05:17:20;59.67;;;27.33;;
50739;SDS011;36704;52.524;17.580;2022-10-22T05:20:06;57.92;;;26.92;;
50739;SDS011;36704;52.524;17.580;2022-10-22T05:22:52;47.85;;;24.15;;
50739;SDS011;36704;52.524;17.580;2022-10-22T05:25:38;62.63;;;25.38;;
50739;SDS011;36704;52.524;17.580;2022-10-22T05:28:24;51.47;;;26.30;;
50739;SDS011;36704;52.524;17.580;2022-10-22T05:31:10;58.92;;;26.23;;
50739;SDS011;36704;52.524;17.580;2022-10-22T05:33:56;55.47;;;28.00;;
50739;SDS011;36704;52.524;17.580;2022-10-22T05:36:42;55.92;;;27.73;;
50739;SDS011;36704;52.524;17.580;2022-10-22T05:39:28;49.67;;;25.27;;
50739;SDS011;36704;52.524;17.580;2022-10-22T05:42:14;57.00;;;26.83;;
50739;SDS011;36704;52.524;17.580;2022-10-22T05:45:00;49.55;;;24.58;;
50739;SDS011;36704;52.524;17.580;2022-10-22T05:47:45;51.33;;;26.85;;
50739;SDS011;36704;52.524;17.580;2022-10-22T05:50:31;49.58;;;26.92;;
50739;SDS011;36704;52.524;17.580;2022-10-22T05:53:17;52.63;;;26.02;;
50739;SDS011;36704;52.524;17.580;2022-10-22T05:56:04;55.03;;;26.13;;
50739;SDS011;36704;52.524;17.580;2022-10-22T05:58:52;57.90;;;26.05;;
50739;SDS011;36704;52.524;17.580;2022-10-22T06:01:39;61.83;;;27.80;;
50739;SDS011;36704;52.524;17.580;2022-10-22T06:04:25;58.67;;;26.73;;
50739;SDS011;36704;52.524;17.580;2022-10-22T06:07:11;60.45;;;26.80;;
50739;SDS011;36704;52.524;17.580;2022-10-22T06:09:59;57.60;;;26.20;;
50739;SDS011;36704;52.524;17.580;2022-10-22T06:12:46;56.13;;;26.05;;
50739;SDS011;36704;52.524;17.580;2022-10-22T06:15:32;57.33;;;26.90;;
50739;SDS011;36704;52.524;17.580;2022-10-22T06:18:19;49.72;;;24.50;;
50739;SDS011;36704;52.524;17.580;2022-10-22T06:21:09;54.08;;;27.63;;
50739;SDS011;36704;52.524;17.580;2022-10-22T06:23:56;48.35;;;24.85;;
50739;SDS011;36704;52.524;17.580;2022-10-22T06:26:43;51.95;;;23.92;;
50739;SDS011;36704;52.524;17.580;2022-10-22T06:29:29;53.28;;;24.80;;
50739;SDS011;36704;52.524;17.580;2022-10-22T06:32:14;55.65;;;25.60;;
50739;SDS011;36704;52.524;17.580;2022-10-22T06:35:00;46.83;;;24.10;;
50739;SDS011;36704;52.524;17.580;2022-10-22T06:37:46;52.70;;;27.05;;
50739;SDS011;36704;52.524;17.580;2022-10-22T06:40:32;60.22;;;27.38;;
50739;SDS011;36704;52.524;17.580;2022-10-22T06:43:18;59.88;;;27.77;;
50739;SDS011;36704;52.524;17.580;2022-10-22T06:46:05;58.40;;;27.23;;
50739;SDS011;36704;52.524;17.580;2022-10-22T06:48:54;57.55;;;29.40;;
50739;SDS011;36704;52.524;17.580;2022-10-22T06:51:41;63.55;;;26.30;;
50739;SDS011;36704;52.524;17.580;2022-10-22T06:54:27;50.30;;;24.63;;
50739;SDS011;36704;52.524;17.580;2022-10-22T06:57:13;62.17;;;28.85;;
50739;SDS011;36704;52.524;17.580;2022-10-22T06:59:58;66.75;;;32.25;;
50739;SDS011;36704;52.524;17.580;2022-10-22T07:02:48;59.75;;;30.08;;
50739;SDS011;36704;52.524;17.580;2022-10-22T07:05:43;58.28;;;32.03;;
50739;SDS011;36704;52.524;17.580;2022-10-22T07:08:29;73.57;;;39.47;;
50739;SDS011;36704;52.524;17.580;2022-10-22T07:11:15;119.05;;;61.80;;
50739;SDS011;36704;52.524;17.580;2022-10-22T07:14:02;77.13;;;40.72;;
50739;SDS011;36704;52.524;17.580;2022-10-22T07:16:48;136.27;;;72.35;;
50739;SDS011;36704;52.524;17.580;2022-10-22T07:19:34;160.30;;;90.47;;
50739;SDS011;36704;52.524;17.580;2022-10-22T07:22:20;183.57;;;90.70;;
50739;SDS011;36704;52.524;17.580;2022-10-22T07:25:06;152.38;;;58.10;;
50739;SDS011;36704;52.524;17.580;2022-10-22T07:27:53;189.13;;;65.72;;
50739;SDS011;36704;52.524;17.580;2022-10-22T07:30:38;134.98;;;52.78;;
50739;SDS011;36704;52.524;17.580;2022-10-22T07:33:25;131.95;;;52.22;;
50739;SDS011;36704;52.524;17.580;2022-10-22T07:36:12;131.00;;;54.00;;
50739;SDS011;36704;52.524;17.580;2022-10-22T07:39:02;104.57;;;44.65;;
50739;SDS011;36704;52.524;17.580;2022-10-22T07:41:49;100.95;;;44.42;;
50739;SDS011;36704;52.524;17.580;2022-10-22T07:44:34;119.45;;;50.33;;
50739;SDS011;36704;52.524;17.580;2022-10-22T07:47:21;126.97;;;61.25;;
50739;SDS011;36704;52.524;17.580;2022-10-22T07:50:06;94.30;;;40.85;;
50739;SDS011;36704;52.524;17.580;2022-10-22T07:52:53;72.88;;;33.45;;
50739;SDS011;36704;52.524;17.580;2022-10-22T07:55:42;88.32;;;37.25;;
50739;SDS011;36704;52.524;17.580;2022-10-22T07:58:28;80.45;;;37.42;;
50739;SDS011;36704;52.524;17.580;2022-10-22T08:01:13;126.97;;;41.08;;
50739;SDS011;36704;52.524;17.580;2022-10-22T08:04:00;134.73;;;42.85;;
50739;SDS011;36704;52.524;17.580;2022-10-22T08:06:45;133.73;;;41.58;;
50739;SDS011;36704;52.524;17.580;2022-10-22T08:09:32;126.30;;;40.38;;
50739;SDS011;36704;52.524;17.580;2022-10-22T08:12:17;140.30;;;47.67;;
50739;SDS011;36704;52.524;17.580;2022-10-22T08:15:04;162.27;;;60.33;;
50739;SDS011;36704;52.524;17.580;2022-10-22T08:17:50;136.60;;;51.30;;
50739;SDS011;36704;52.524;17.580;2022-10-22T08:20:36;150.52;;;52.33;;
50739;SDS011;36704;52.524;17.580;2022-10-22T08:23:22;160.50;;;59.67;;
50739;SDS011;36704;52.524;17.580;2022-10-22T08:28:58;94.95;;;39.50;;
50739;SDS011;36704;52.524;17.580;2022-10-22T08:31:44;109.05;;;40.47;;
50739;SDS011;36704;52.524;17.580;2022-10-22T08:34:30;87.35;;;37.15;;
50739;SDS011;36704;52.524;17.580;2022-10-22T08:37:16;91.32;;;42.15;;
50739;SDS011;36704;52.524;17.580;2022-10-22T08:40:02;83.82;;;37.53;;
50739;SDS011;36704;52.524;17.580;2022-10-22T08:45:53;110.70;;;44.80;;
50739;SDS011;36704;52.524;17.580;2022-10-22T08:49:04;103.88;;;44.00;;
50739;SDS011;36704;52.524;17.580;2022-10-22T08:51:57;81.15;;;36.67;;
50739;SDS011;36704;52.524;17.580;2022-10-22T08:54:46;73.93;;;33.83;;
50739;SDS011;36704;52.524;17.580;2022-10-22T08:57:39;107.18;;;45.72;;
50739;SDS011;36704;52.524;17.580;2022-10-22T09:00:33;67.70;;;30.17;;
50739;SDS011;36704;52.524;17.580;2022-10-22T09:06:36;68.38;;;30.75;;
50739;SDS011;36704;52.524;17.580;2022-10-22T09:09:22;97.57;;;42.22;;
50739;SDS011;36704;52.524;17.580;2022-10-22T09:12:20;114.35;;;48.00;;
50739;SDS011;36704;52.524;17.580;2022-10-22T09:15:11;69.18;;;33.67;;
50739;SDS011;36704;52.524;17.580;2022-10-22T09:20:53;107.88;;;46.88;;
50739;SDS011;36704;52.524;17.580;2022-10-22T09:26:35;122.85;;;50.30;;
50739;SDS011;36704;52.524;17.580;2022-10-22T09:29:23;104.93;;;42.10;;
50739;SDS011;36704;52.524;17.580;2022-10-22T09:32:16;108.47;;;42.92;;
50739;SDS011;36704;52.524;17.580;2022-10-22T09:35:03;94.68;;;37.67;;
50739;SDS011;36704;52.524;17.580;2022-10-22T09:37:50;107.55;;;44.58;;
50739;SDS011;36704;52.524;17.580;2022-10-22T09:43:30;111.32;;;44.20;;
50739;SDS011;36704;52.524;17.580;2022-10-22T09:46:18;120.18;;;50.45;;
50739;SDS011;36704;52.524;17.580;2022-10-22T09:49:09;193.35;;;64.47;;
50739;SDS011;36704;52.524;17.580;2022-10-22T09:51:59;94.18;;;39.17;;
50739;SDS011;36704;52.524;17.580;2022-10-22T09:54:45;159.23;;;68.07;;
50739;SDS011;36704;52.524;17.580;2022-10-22T09:57:31;106.05;;;44.05;;
50739;SDS011;36704;52.524;17.580;2022-10-22T10:00:17;71.07;;;32.60;;
50739;SDS011;36704;52.524;17.580;2022-10-22T10:03:03;60.17;;;28.45;;
50739;SDS011;36704;52.524;17.580;2022-10-22T10:05:51;62.45;;;29.88;;
50739;SDS011;36704;52.524;17.580;2022-10-22T10:08:39;94.18;;;40.50;;
50739;SDS011;36704;52.524;17.580;2022-10-22T10:14:32;101.60;;;44.17;;
50739;SDS011;36704;52.524;17.580;2022-10-22T10:17:31;91.88;;;42.10;;
50739;SDS011;36704;52.524;17.580;2022-10-22T10:21:08;77.90;;;32.83;;
50739;SDS011;36704;52.524;17.580;2022-10-22T10:26:57;75.40;;;32.25;;
50739;SDS011;36704;52.524;17.580;2022-10-22T10:33:00;127.22;;;51.90;;
50739;SDS011;36704;52.524;17.580;2022-10-22T10:35:56;108.13;;;42.10;;
50739;SDS011;36704;52.524;17.580;2022-10-22T10:51:03;68.47;;;31.60;;
50739;SDS011;36704;52.524;17.580;2022-10-22T11:00:18;74.95;;;31.85;;
50739;SDS011;36704;52.524;17.580;2022-10-22T11:06:30;113.47;;;47.47;;
50739;SDS011;36704;52.524;17.580;2022-10-22T11:09:26;107.43;;;47.47;;
50739;SDS011;36704;52.524;17.580;2022-10-22T11:12:16;168.63;;;68.93;;
50739;SDS011;36704;52.524;17.580;2022-10-22T11:18:14;102.18;;;43.25;;
50739;SDS011;36704;52.524;17.580;2022-10-22T11:21:07;61.80;;;31.58;;
50739;SDS011;36704;52.524;17.580;2022-10-22T11:24:00;73.95;;;40.08;;
50739;SDS011;36704;52.524;17.580;2022-10-22T11:29:41;96.65;;;45.45;;
50739;SDS011;36704;52.524;17.580;2022-10-22T11:32:31;104.30;;;47.70;;
50739;SDS011;36704;52.524;17.580;2022-10-22T11:35:24;107.00;;;55.50;;
50739;SDS011;36704;52.524;17.580;2022-10-22T11:38:13;116.57;;;48.33;;
50739;SDS011;36704;52.524;17.580;2022-10-22T11:41:07;173.45;;;56.60;;
50739;SDS011;36704;52.524;17.580;2022-10-22T11:43:57;176.25;;;55.50;;
50739;SDS011;36704;52.524;17.580;2022-10-22T11:49:41;190.02;;;72.60;;
50739;SDS011;36704;52.524;17.580;2022-10-22T11:52:40;158.05;;;60.95;;
50739;SDS011;36704;52.524;17.580;2022-10-22T11:55:32;119.82;;;51.78;;
50739;SDS011;36704;52.524;17.580;2022-10-22T12:01:25;59.97;;;30.98;;
50739;SDS011;36704;52.524;17.580;2022-10-22T12:04:39;53.30;;;26.00;;
50739;SDS011;36704;52.524;17.580;2022-10-22T12:07:33;104.50;;;44.70;;
50739;SDS011;36704;52.524;17.580;2022-10-22T12:10:35;46.88;;;25.42;;
50739;SDS011;36704;52.524;17.580;2022-10-22T12:13:50;79.35;;;38.25;;
50739;SDS011;36704;52.524;17.580;2022-10-22T12:16:54;44.50;;;24.83;;
50739;SDS011;36704;52.524;17.580;2022-10-22T12:19:43;51.28;;;28.73;;
50739;SDS011;36704;52.524;17.580;2022-10-22T12:22:34;44.35;;;26.15;;
50739;SDS011;36704;52.524;17.580;2022-10-22T12:25:25;51.63;;;27.13;;
50739;SDS011;36704;52.524;17.580;2022-10-22T12:28:20;48.45;;;27.80;;
50739;SDS011;36704;52.524;17.580;2022-10-22T12:31:13;41.10;;;24.73;;
50739;SDS011;36704;52.524;17.580;2022-10-22T12:34:00;44.08;;;25.48;;
50739;SDS011;36704;52.524;17.580;2022-10-22T12:36:46;92.03;;;45.13;;
50739;SDS011;36704;52.524;17.580;2022-10-22T12:39:33;92.07;;;47.28;;
50739;SDS011;36704;52.524;17.580;2022-10-22T12:42:20;236.80;;;115.50;;
50739;SDS011;36704;52.524;17.580;2022-10-22T12:45:08;292.73;;;146.00;;
50739;SDS011;36704;52.524;17.580;2022-10-22T12:47:55;216.25;;;133.75;;
50739;SDS011;36704;52.524;17.580;2022-10-22T12:50:43;127.88;;;91.72;;
50739;SDS011;36704;52.524;17.580;2022-10-22T12:59:36;44.33;;;26.63;;
50739;SDS011;36704;52.524;17.580;2022-10-22T13:02:24;57.55;;;33.42;;
50739;SDS011;36704;52.524;17.580;2022-10-22T13:08:02;53.78;;;30.75;;
50739;SDS011;36704;52.524;17.580;2022-10-22T13:10:50;46.25;;;28.33;;
50739;SDS011;36704;52.524;17.580;2022-10-22T13:16:23;47.90;;;26.73;;
50739;SDS011;36704;52.524;17.580;2022-10-22T13:19:47;54.05;;;31.40;;
50739;SDS011;36704;52.524;17.580;2022-10-22T13:22:37;48.72;;;29.55;;
50739;SDS011;36704;52.524;17.580;2022-10-22T13:25:34;52.53;;;30.83;;
50739;SDS011;36704;52.524;17.580;2022-10-22T13:28:22;41.80;;;25.88;;
50739;SDS011;36704;52.524;17.580;2022-10-22T13:31:29;61.72;;;34.40;;
50739;SDS011;36704;52.524;17.580;2022-10-22T13:34:17;42.22;;;24.23;;
50739;SDS011;36704;52.524;17.580;2022-10-22T13:37:07;60.10;;;33.42;;
50739;SDS011;36704;52.524;17.580;2022-10-22T13:39:54;57.50;;;33.13;;
50739;SDS011;36704;52.524;17.580;2022-10-22T13:42:40;73.72;;;35.67;;
50739;SDS011;36704;52.524;17.580;2022-10-22T13:45:27;87.28;;;39.78;;
50739;SDS011;36704;52.524;17.580;2022-10-22T13:48:14;64.07;;;34.65;;
50739;SDS011;36704;52.524;17.580;2022-10-22T13:51:01;73.72;;;40.63;;
50739;SDS011;36704;52.524;17.580;2022-10-22T13:53:47;92.13;;;47.22;;
50739;SDS011;36704;52.524;17.580;2022-10-22T13:56:35;50.42;;;31.70;;
50739;SDS011;36704;52.524;17.580;2022-10-22T13:59:21;46.80;;;26.73;;
50739;SDS011;36704;52.524;17.580;2022-10-22T14:02:12;46.92;;;28.92;;
50739;SDS011;36704;52.524;17.580;2022-10-22T14:04:58;50.13;;;29.00;;
50739;SDS011;36704;52.524;17.580;2022-10-22T14:07:48;54.85;;;29.98;;
50739;SDS011;36704;52.524;17.580;2022-10-22T14:10:34;48.78;;;26.67;;
50739;SDS011;36704;52.524;17.580;2022-10-22T14:13:20;46.30;;;26.27;;
50739;SDS011;36704;52.524;17.580;2022-10-22T14:16:06;44.60;;;28.05;;
50739;SDS011;36704;52.524;17.580;2022-10-22T14:18:56;48.07;;;27.77;;
50739;SDS011;36704;52.524;17.580;2022-10-22T14:21:42;47.92;;;27.25;;
50739;SDS011;36704;52.524;17.580;2022-10-22T14:24:28;48.90;;;29.92;;
50739;SDS011;36704;52.524;17.580;2022-10-22T14:27:14;42.80;;;27.70;;
50739;SDS011;36704;52.524;17.580;2022-10-22T14:29:59;43.28;;;26.83;;
50739;SDS011;36704;52.524;17.580;2022-10-22T14:32:46;39.03;;;24.15;;
50739;SDS011;36704;52.524;17.580;2022-10-22T14:35:33;37.35;;;23.40;;
50739;SDS011;36704;52.524;17.580;2022-10-22T14:38:18;41.30;;;25.73;;
50739;SDS011;36704;52.524;17.580;2022-10-22T14:41:07;39.10;;;24.45;;
50739;SDS011;36704;52.524;17.580;2022-10-22T14:44:01;39.70;;;24.60;;
50739;SDS011;36704;52.524;17.580;2022-10-22T14:46:48;42.95;;;25.02;;
50739;SDS011;36704;52.524;17.580;2022-10-22T14:49:34;46.15;;;28.17;;
50739;SDS011;36704;52.524;17.580;2022-10-22T14:52:20;46.38;;;29.23;;
50739;SDS011;36704;52.524;17.580;2022-10-22T14:55:07;41.53;;;26.17;;
50739;SDS011;36704;52.524;17.580;2022-10-22T15:00:42;61.63;;;32.90;;
50739;SDS011;36704;52.524;17.580;2022-10-22T15:03:28;59.90;;;33.83;;
50739;SDS011;36704;52.524;17.580;2022-10-22T15:06:14;61.85;;;34.17;;
50739;SDS011;36704;52.524;17.580;2022-10-22T15:09:00;63.35;;;34.83;;
50739;SDS011;36704;52.524;17.580;2022-10-22T15:11:46;61.63;;;33.33;;
50739;SDS011;36704;52.524;17.580;2022-10-22T15:14:32;71.53;;;37.65;;
50739;SDS011;36704;52.524;17.580;2022-10-22T15:17:18;65.97;;;33.95;;
50739;SDS011;36704;52.524;17.580;2022-10-22T15:20:04;61.97;;;33.30;;
50739;SDS011;36704;52.524;17.580;2022-10-22T15:22:50;79.60;;;35.85;;
50739;SDS011;36704;52.524;17.580;2022-10-22T15:25:36;51.65;;;28.80;;
50739;SDS011;36704;52.524;17.580;2022-10-22T15:28:22;43.70;;;24.85;;
50739;SDS011;36704;52.524;17.580;2022-10-22T15:31:11;40.72;;;23.67;;
50739;SDS011;36704;52.524;17.580;2022-10-22T15:33:58;57.13;;;30.02;;
50739;SDS011;36704;52.524;17.580;2022-10-22T15:36:46;50.53;;;26.92;;
50739;SDS011;36704;52.524;17.580;2022-10-22T15:39:32;44.47;;;24.80;;
50739;SDS011;36704;52.524;17.580;2022-10-22T15:42:18;50.38;;;27.25;;
50739;SDS011;36704;52.524;17.580;2022-10-22T15:45:04;49.00;;;26.45;;
50739;SDS011;36704;52.524;17.580;2022-10-22T15:47:50;53.78;;;27.40;;
50739;SDS011;36704;52.524;17.580;2022-10-22T15:50:37;42.95;;;23.60;;
50739;SDS011;36704;52.524;17.580;2022-10-22T15:53:23;62.53;;;31.38;;
50739;SDS011;36704;52.524;17.580;2022-10-22T15:56:08;36.28;;;20.13;;
50739;SDS011;36704;52.524;17.580;2022-10-22T15:59:00;53.42;;;29.50;;
50739;SDS011;36704;52.524;17.580;2022-10-22T16:01:49;51.70;;;26.45;;
50739;SDS011;36704;52.524;17.580;2022-10-22T16:04:36;46.35;;;28.35;;
50739;SDS011;36704;52.524;17.580;2022-10-22T16:07:22;47.95;;;25.80;;
50739;SDS011;36704;52.524;17.580;2022-10-22T16:10:09;64.97;;;33.65;;
50739;SDS011;36704;52.524;17.580;2022-10-22T16:12:57;64.93;;;32.78;;
50739;SDS011;36704;52.524;17.580;2022-10-22T16:15:43;47.30;;;26.85;;
50739;SDS011;36704;52.524;17.580;2022-10-22T16:18:28;54.55;;;29.67;;
50739;SDS011;36704;52.524;17.580;2022-10-22T16:21:14;49.63;;;26.70;;
50739;SDS011;36704;52.524;17.580;2022-10-22T16:24:00;52.65;;;27.02;;
50739;SDS011;36704;52.524;17.580;2022-10-22T16:26:51;98.70;;;46.33;;
50739;SDS011;36704;52.524;17.580;2022-10-22T16:29:37;56.85;;;31.10;;
50739;SDS011;36704;52.524;17.580;2022-10-22T16:32:24;44.97;;;25.70;;
50739;SDS011;36704;52.524;17.580;2022-10-22T16:35:09;64.38;;;30.65;;
50739;SDS011;36704;52.524;17.580;2022-10-22T16:37:55;58.78;;;28.40;;
50739;SDS011;36704;52.524;17.580;2022-10-22T16:40:41;49.05;;;27.23;;
50739;SDS011;36704;52.524;17.580;2022-10-22T16:43:27;46.65;;;26.83;;
50739;SDS011;36704;52.524;17.580;2022-10-22T16:46:14;62.15;;;30.52;;
50739;SDS011;36704;52.524;17.580;2022-10-22T16:49:00;57.25;;;28.95;;
50739;SDS011;36704;52.524;17.580;2022-10-22T16:51:47;52.35;;;25.65;;
50739;SDS011;36704;52.524;17.580;2022-10-22T16:54:32;54.70;;;28.08;;
50739;SDS011;36704;52.524;17.580;2022-10-22T16:57:18;50.80;;;25.75;;
50739;SDS011;36704;52.524;17.580;2022-10-22T17:00:04;58.85;;;26.17;;
50739;SDS011;36704;52.524;17.580;2022-10-22T17:02:51;50.15;;;25.75;;
50739;SDS011;36704;52.524;17.580;2022-10-22T17:05:38;55.65;;;27.48;;
50739;SDS011;36704;52.524;17.580;2022-10-22T17:08:24;59.35;;;28.08;;
50739;SDS011;36704;52.524;17.580;2022-10-22T17:11:11;70.25;;;29.45;;
50739;SDS011;36704;52.524;17.580;2022-10-22T17:13:57;58.85;;;27.10;;
50739;SDS011;36704;52.524;17.580;2022-10-22T17:16:44;70.15;;;30.35;;
50739;SDS011;36704;52.524;17.580;2022-10-22T17:19:33;68.15;;;31.00;;
50739;SDS011;36704;52.524;17.580;2022-10-22T17:22:23;66.63;;;27.83;;
50739;SDS011;36704;52.524;17.580;2022-10-22T17:25:13;57.30;;;27.88;;
50739;SDS011;36704;52.524;17.580;2022-10-22T17:28:02;74.15;;;32.40;;
50739;SDS011;36704;52.524;17.580;2022-10-22T17:30:48;61.13;;;30.23;;
50739;SDS011;36704;52.524;17.580;2022-10-22T17:33:34;71.97;;;33.60;;
50739;SDS011;36704;52.524;17.580;2022-10-22T17:36:22;65.07;;;31.15;;
50739;SDS011;36704;52.524;17.580;2022-10-22T17:39:10;63.42;;;29.67;;
50739;SDS011;36704;52.524;17.580;2022-10-22T17:41:58;62.65;;;30.05;;
50739;SDS011;36704;52.524;17.580;2022-10-22T17:44:44;65.80;;;28.25;;
50739;SDS011;36704;52.524;17.580;2022-10-22T17:47:29;54.10;;;25.58;;
50739;SDS011;36704;52.524;17.580;2022-10-22T17:50:15;55.53;;;26.17;;
50739;SDS011;36704;52.524;17.580;2022-10-22T17:53:01;59.55;;;27.67;;